Time;durP1;ratioP1;P1;durP2;ratioP2;P2;SDS_P1;SDS_P2;PMS_P1;PMS_P2;Temp;Humidity;BMP_temperature;BMP_pressure;BME280_temperature;BME280_humidity;BME280_pressure;Samples;Min_cycle;Max_cycle;Signal;HPM_P1;HPM_P2
2023/06/20 00:02:00;;;;;;;6.20;6.00;;;22.60;99.90;;;;;;4997224;28;20562;-83
2023/06/20 00:04:28;;;;;;;6.60;6.37;;;22.70;99.90;;;;;;4994966;28;21262;-83
2023/06/20 00:06:55;;;;;;;7.23;6.60;;;22.70;99.90;;;;;;5001261;28;20435;-82
2023/06/20 00:09:21;;;;;;;7.10;6.77;;;22.70;99.90;;;;;;4997043;28;20467;-83
2023/06/20 00:11:47;;;;;;;6.77;6.27;;;22.70;99.90;;;;;;5005589;28;20661;-82
2023/06/20 00:14:14;;;;;;;8.30;7.70;;;22.70;99.90;;;;;;5005848;28;20193;-83
2023/06/20 00:16:40;;;;;;;7.57;7.17;;;22.70;99.90;;;;;;4998028;28;20744;-82
2023/06/20 00:19:08;;;;;;;7.07;6.67;;;22.70;99.90;;;;;;4988860;28;20501;-82
2023/06/20 00:21:34;;;;;;;7.50;7.10;;;22.80;99.90;;;;;;4997299;28;20471;-82
2023/06/20 00:24:00;;;;;;;7.20;6.80;;;22.90;99.90;;;;;;4992370;28;20969;-83
2023/06/20 00:26:28;;;;;;;7.27;6.97;;;22.90;99.90;;;;;;4997457;28;20642;-83
2023/06/20 00:28:54;;;;;;;7.30;6.80;;;23.00;99.90;;;;;;4990030;28;20451;-82
2023/06/20 00:31:19;;;;;;;8.27;7.30;;;22.90;99.90;;;;;;5000744;28;20435;-83
2023/06/20 00:33:46;;;;;;;6.47;6.27;;;22.90;99.90;;;;;;4994398;28;20188;-83
2023/06/20 00:36:12;;;;;;;7.57;7.07;;;22.90;99.90;;;;;;4993501;28;20452;-83
2023/06/20 00:38:38;;;;;;;7.43;6.93;;;23.00;99.90;;;;;;4994625;28;20428;-83
2023/06/20 00:41:05;;;;;;;7.40;6.90;;;23.00;99.90;;;;;;4994610;28;20436;-82
2023/06/20 00:43:30;;;;;;;7.27;6.97;;;23.10;99.90;;;;;;4988558;28;20437;-82
2023/06/20 00:45:58;;;;;;;7.47;6.97;;;23.00;99.90;;;;;;4994980;28;20432;-83
2023/06/20 00:48:24;;;;;;;7.50;7.20;;;23.10;99.90;;;;;;4989257;28;20257;-84
2023/06/20 00:50:53;;;;;;;7.47;6.97;;;23.10;99.90;;;;;;5004723;28;20428;-84
2023/06/20 00:53:20;;;;;;;7.73;7.33;;;23.20;99.90;;;;;;4992716;28;20483;-83
2023/06/20 00:55:48;;;;;;;8.30;7.57;;;23.20;99.90;;;;;;4997931;28;20836;-83
2023/06/20 00:58:16;;;;;;;7.97;7.27;;;23.10;99.90;;;;;;4989835;28;20455;-82
2023/06/20 01:00:42;;;;;;;7.87;7.47;;;23.00;99.90;;;;;;4994175;28;20514;-82
2023/06/20 01:03:11;;;;;;;7.57;7.17;;;23.00;99.90;;;;;;4998641;28;20443;-82
2023/06/20 01:05:37;;;;;;;6.20;5.90;;;23.00;99.90;;;;;;4994025;28;20240;-84
2023/06/20 01:08:18;;;;;;;6.90;6.50;;;22.90;99.90;;;;;;4985746;28;20867;-83
2023/06/20 01:11:13;;;;;;;7.83;7.43;;;22.90;99.90;;;;;;5000340;28;20458;-82
2023/06/20 01:14:13;;;;;;;7.80;7.27;;;22.90;99.90;;;;;;4989095;28;20430;-82
2023/06/20 01:16:46;;;;;;;7.60;7.27;;;22.90;99.90;;;;;;4964561;28;20481;-83
2023/06/20 01:19:28;;;;;;;7.60;7.07;;;22.80;99.90;;;;;;4979130;28;20435;-83
2023/06/20 01:22:08;;;;;;;7.70;6.63;;;22.80;99.90;;;;;;4980756;28;20447;-84
2023/06/20 01:24:58;;;;;;;7.40;7.00;;;22.80;99.90;;;;;;4995766;28;20567;-83
2023/06/20 01:27:29;;;;;;;7.93;7.30;;;22.70;99.90;;;;;;5000869;28;20431;-83
2023/06/20 01:30:16;;;;;;;7.37;6.77;;;22.80;99.90;;;;;;4982890;28;20976;-82
2023/06/20 01:32:46;;;;;;;6.80;6.50;;;22.80;99.90;;;;;;4995472;28;21016;-83
2023/06/20 01:35:17;;;;;;;7.47;7.13;;;22.90;99.90;;;;;;4994382;28;20502;-83
2023/06/20 01:37:45;;;;;;;8.23;7.30;;;22.80;99.90;;;;;;4998247;28;20431;-83
2023/06/20 01:40:15;;;;;;;7.23;6.87;;;22.80;99.90;;;;;;4994761;28;20801;-83
2023/06/20 01:42:42;;;;;;;7.93;7.43;;;22.70;99.90;;;;;;4998274;28;20485;-84
2023/06/20 01:45:10;;;;;;;7.67;7.37;;;22.70;99.90;;;;;;5001952;28;20961;-83
2023/06/20 01:47:38;;;;;;;7.40;6.93;;;22.60;99.90;;;;;;5000515;28;20439;-82
2023/06/20 01:50:06;;;;;;;7.67;7.17;;;22.60;99.90;;;;;;4990511;28;20443;-83
2023/06/20 01:52:34;;;;;;;7.10;6.77;;;22.50;99.90;;;;;;4994054;28;20514;-82
2023/06/20 01:55:04;;;;;;;8.00;7.47;;;22.40;99.90;;;;;;5001025;28;20502;-82
2023/06/20 01:57:31;;;;;;;7.23;6.83;;;22.20;99.90;;;;;;4994935;28;20440;-82
2023/06/20 01:59:58;;;;;;;7.40;7.00;;;22.10;99.90;;;;;;4992421;28;20445;-82
2023/06/20 02:02:25;;;;;;;7.87;7.43;;;22.10;99.90;;;;;;5001317;28;20452;-82
2023/06/20 02:04:56;;;;;;;7.57;7.17;;;22.10;99.90;;;;;;5000063;28;20450;-82
2023/06/20 02:07:23;;;;;;;8.63;8.07;;;22.20;99.90;;;;;;4995316;28;20443;-82
2023/06/20 02:09:50;;;;;;;8.20;7.70;;;22.20;99.90;;;;;;4977910;28;20454;-82
2023/06/20 02:12:16;;;;;;;7.50;7.20;;;22.10;99.90;;;;;;4973975;28;20944;-83
2023/06/20 02:14:44;;;;;;;7.50;7.20;;;22.00;99.90;;;;;;5000020;28;20433;-83
2023/06/20 02:17:14;;;;;;;8.20;7.70;;;22.10;99.90;;;;;;5000639;28;20441;-83
2023/06/20 02:19:40;;;;;;;7.07;6.77;;;22.10;99.90;;;;;;5014363;28;20427;-83
2023/06/20 02:22:07;;;;;;;7.60;7.30;;;22.20;99.90;;;;;;5008635;28;20435;-83
2023/06/20 02:24:34;;;;;;;7.50;7.00;;;22.20;99.90;;;;;;5013207;28;20184;-83
2023/06/20 02:27:01;;;;;;;8.90;8.10;;;22.30;99.90;;;;;;4995395;28;20531;-83
2023/06/20 02:29:31;;;;;;;8.20;7.67;;;22.40;99.90;;;;;;4997989;28;20748;-83
2023/06/20 02:31:58;;;;;;;8.30;7.90;;;22.40;99.90;;;;;;4991730;28;20440;-83
2023/06/20 02:34:24;;;;;;;8.07;7.47;;;22.40;99.90;;;;;;4994512;28;20447;-84
2023/06/20 02:36:53;;;;;;;7.53;7.20;;;22.50;99.90;;;;;;4995859;28;20471;-83
2023/06/20 02:39:19;;;;;;;8.30;7.80;;;22.60;99.90;;;;;;4993604;28;20439;-83
2023/06/20 02:41:44;;;;;;;9.10;8.60;;;22.60;99.90;;;;;;4989881;28;20444;-83
2023/06/20 02:44:10;;;;;;;8.90;8.20;;;22.50;99.90;;;;;;4996255;28;20955;-83
2023/06/20 02:46:56;;;;;;;7.87;7.33;;;22.40;99.90;;;;;;4996308;28;20207;-84
2023/06/20 02:49:45;;;;;;;8.13;7.63;;;22.40;99.90;;;;;;4984447;28;20554;-84
2023/06/20 02:52:26;;;;;;;8.83;8.30;;;22.40;99.90;;;;;;4991403;28;20931;-84
2023/06/20 02:55:14;;;;;;;8.00;7.60;;;22.40;99.90;;;;;;5000706;28;20424;-83
2023/06/20 02:57:45;;;;;;;8.20;7.77;;;22.50;99.90;;;;;;4992300;28;20507;-84
2023/06/20 03:00:12;;;;;;;8.63;8.20;;;22.40;99.90;;;;;;4992840;28;20424;-83
2023/06/20 03:02:47;;;;;;;8.93;8.50;;;22.40;99.90;;;;;;4977817;28;20623;-84
2023/06/20 03:05:17;;;;;;;8.93;8.23;;;22.40;99.90;;;;;;4992986;28;20950;-83
2023/06/20 03:07:43;;;;;;;7.73;7.40;;;22.30;99.90;;;;;;4991240;28;20490;-83
2023/06/20 03:10:10;;;;;;;8.43;7.80;;;22.20;99.90;;;;;;4996922;28;20547;-83
2023/06/20 03:12:37;;;;;;;8.60;8.17;;;22.20;99.90;;;;;;4991039;28;20443;-83
2023/06/20 03:15:04;;;;;;;8.43;7.73;;;22.10;99.90;;;;;;4993196;28;20503;-82
2023/06/20 03:17:29;;;;;;;8.97;8.27;;;22.00;99.90;;;;;;4975199;28;20899;-82
2023/06/20 03:19:55;;;;;;;8.97;8.57;;;22.00;99.90;;;;;;4999068;28;20436;-83
2023/06/20 03:22:20;;;;;;;9.00;8.30;;;22.10;99.90;;;;;;4967612;28;20312;-83
2023/06/20 03:24:47;;;;;;;7.70;7.30;;;22.10;99.90;;;;;;4994799;28;20659;-83
2023/06/20 03:27:16;;;;;;;9.07;8.57;;;22.00;99.90;;;;;;4973519;28;20681;-83
2023/06/20 03:29:41;;;;;;;9.43;8.83;;;22.00;99.90;;;;;;4993524;28;20466;-83
2023/06/20 03:32:07;;;;;;;7.83;7.43;;;22.00;99.90;;;;;;4994445;28;20880;-83
2023/06/20 03:34:33;;;;;;;9.20;8.60;;;22.00;99.90;;;;;;4996682;28;20192;-83
2023/06/20 03:36:58;;;;;;;8.00;7.70;;;22.10;99.90;;;;;;4997571;28;20220;-82
2023/06/20 03:39:24;;;;;;;8.40;7.80;;;22.10;99.90;;;;;;4993351;28;20283;-83
2023/06/20 03:41:49;;;;;;;10.27;8.63;;;22.10;99.90;;;;;;4992966;28;20283;-83
2023/06/20 03:44:15;;;;;;;10.77;10.10;;;22.10;99.90;;;;;;4997519;28;20228;-83
2023/06/20 03:46:40;;;;;;;9.10;8.40;;;22.10;99.90;;;;;;4995072;28;20732;-83
2023/06/20 03:49:06;;;;;;;9.37;8.77;;;22.10;99.90;;;;;;4998923;28;20207;-84
2023/06/20 03:51:32;;;;;;;8.63;7.93;;;22.10;99.90;;;;;;4993576;28;20706;-82
2023/06/20 03:53:57;;;;;;;8.60;8.10;;;22.00;99.90;;;;;;4998200;28;20184;-82
2023/06/20 03:56:22;;;;;;;11.13;10.23;;;22.00;99.90;;;;;;4992541;28;20717;-82
2023/06/20 03:58:48;;;;;;;11.83;10.83;;;22.00;99.90;;;;;;4993371;28;20209;-84
2023/06/20 04:01:14;;;;;;;11.47;10.40;;;22.00;99.90;;;;;;4987057;28;20224;-81
2023/06/20 04:03:39;;;;;;;19.83;18.27;;;22.10;99.90;;;;;;4990571;28;20563;-82
2023/06/20 04:06:06;;;;;;;9.43;8.93;;;22.10;99.90;;;;;;4973425;28;20191;-82
2023/06/20 04:08:32;;;;;;;10.60;9.90;;;22.10;99.90;;;;;;4992910;28;20177;-86
2023/06/20 04:10:57;;;;;;;13.17;12.00;;;22.10;99.90;;;;;;4995099;28;20439;-83
2023/06/20 04:13:23;;;;;;;13.20;12.00;;;22.10;99.90;;;;;;4991149;28;20193;-84
2023/06/20 04:15:48;;;;;;;12.30;11.20;;;22.20;99.90;;;;;;4995778;28;20271;-82
2023/06/20 04:18:14;;;;;;;9.17;8.53;;;22.30;99.90;;;;;;4990967;28;20189;-81
2023/06/20 04:20:41;;;;;;;10.13;9.30;;;22.40;99.90;;;;;;4996297;28;20180;-80
2023/06/20 04:23:07;;;;;;;12.17;10.50;;;22.50;99.90;;;;;;4987346;28;20279;-83
2023/06/20 04:25:33;;;;;;;9.43;8.90;;;22.50;99.90;;;;;;4992546;28;20487;-83
2023/06/20 04:27:59;;;;;;;8.70;8.07;;;22.50;99.90;;;;;;4993097;28;20200;-82
2023/06/20 04:30:25;;;;;;;10.17;9.47;;;22.50;99.90;;;;;;4997798;28;21624;-82
2023/06/20 04:32:53;;;;;;;9.17;8.67;;;22.40;99.90;;;;;;4992848;28;20611;-82
2023/06/20 04:35:22;;;;;;;8.67;8.13;;;22.50;99.90;;;;;;4991843;28;20208;-81
2023/06/20 04:37:56;;;;;;;9.90;9.03;;;22.60;99.90;;;;;;4992969;28;20869;-81
2023/06/20 04:40:22;;;;;;;8.73;8.07;;;22.70;99.90;;;;;;4995785;28;20436;-81
2023/06/20 04:42:47;;;;;;;7.57;7.27;;;22.70;99.90;;;;;;4995372;28;20455;-82
2023/06/20 04:45:13;;;;;;;8.33;7.53;;;22.80;99.90;;;;;;4991626;28;20192;-81
2023/06/20 04:47:41;;;;;;;9.07;8.17;;;22.90;99.90;;;;;;4995124;28;20204;-81
2023/06/20 04:50:09;;;;;;;9.77;7.97;;;22.90;99.90;;;;;;4994326;28;20200;-82
2023/06/20 04:52:35;;;;;;;8.27;7.50;;;23.00;99.90;;;;;;4988693;28;20464;-82
2023/06/20 04:55:03;;;;;;;7.30;6.90;;;23.10;99.90;;;;;;4989005;28;20503;-81
2023/06/20 04:57:33;;;;;;;6.67;6.40;;;23.10;99.90;;;;;;4990062;28;20443;-82
2023/06/20 04:59:59;;;;;;;7.40;6.80;;;23.10;99.90;;;;;;4975338;28;20809;-80
2023/06/20 05:02:25;;;;;;;6.47;6.20;;;23.10;99.90;;;;;;4995724;28;20454;-82
2023/06/20 05:04:51;;;;;;;6.47;6.13;;;23.10;99.90;;;;;;4992042;28;20436;-81
2023/06/20 05:07:17;;;;;;;6.67;6.37;;;23.10;99.90;;;;;;4995504;28;20819;-82
2023/06/20 05:09:43;;;;;;;6.77;6.20;;;23.10;99.90;;;;;;4998410;28;20239;-81
2023/06/20 05:12:09;;;;;;;6.33;6.13;;;23.10;99.90;;;;;;4992150;28;20189;-82
2023/06/20 05:14:34;;;;;;;6.80;6.40;;;23.10;99.90;;;;;;4995708;28;20474;-82
2023/06/20 05:17:00;;;;;;;7.53;7.00;;;23.20;99.90;;;;;;4992529;28;20483;-81
2023/06/20 05:19:26;;;;;;;6.50;6.10;;;23.20;99.90;;;;;;4994474;28;20279;-81
2023/06/20 05:21:52;;;;;;;6.43;6.13;;;23.30;99.90;;;;;;4991518;28;20486;-84
2023/06/20 05:24:17;;;;;;;6.93;6.43;;;23.40;99.90;;;;;;4972174;28;20539;-81
2023/06/20 05:26:43;;;;;;;6.53;6.20;;;23.60;99.90;;;;;;4995346;28;20459;-82
2023/06/20 05:29:09;;;;;;;7.00;6.60;;;23.70;99.90;;;;;;4994035;28;20205;-80
2023/06/20 05:31:39;;;;;;;6.77;6.37;;;23.70;99.90;;;;;;4996163;28;20252;-83
2023/06/20 05:34:05;;;;;;;6.53;6.23;;;23.80;99.90;;;;;;4988223;28;20197;-82
2023/06/20 05:36:30;;;;;;;8.03;7.20;;;23.90;99.90;;;;;;4996527;28;20474;-82
2023/06/20 05:38:58;;;;;;;7.27;6.80;;;24.00;99.90;;;;;;4997841;28;20184;-82
2023/06/20 05:41:24;;;;;;;7.60;6.97;;;24.00;99.90;;;;;;5001189;28;20279;-83
2023/06/20 05:43:50;;;;;;;7.20;6.57;;;24.10;99.90;;;;;;5000991;28;20467;-84
2023/06/20 05:46:15;;;;;;;6.17;5.90;;;24.30;99.90;;;;;;5010121;28;20438;-86
2023/06/20 05:48:41;;;;;;;6.20;5.80;;;24.50;99.90;;;;;;5008606;28;20203;-85
2023/06/20 05:51:11;;;;;;;7.20;6.60;;;24.50;99.90;;;;;;5006991;28;20182;-82
2023/06/20 05:53:41;;;;;;;6.50;6.30;;;24.60;99.90;;;;;;4999712;28;20235;-80
2023/06/20 05:56:08;;;;;;;6.80;6.30;;;24.60;99.90;;;;;;5005611;28;20543;-82
2023/06/20 05:58:33;;;;;;;6.40;6.10;;;24.60;99.90;;;;;;5001013;28;20466;-84
2023/06/20 06:01:01;;;;;;;6.00;5.80;;;24.70;99.90;;;;;;5001968;28;20499;-84
2023/06/20 06:03:26;;;;;;;6.23;5.63;;;24.80;99.90;;;;;;5005285;28;20196;-84
2023/06/20 06:05:52;;;;;;;6.53;5.93;;;24.50;99.90;;;;;;5002610;28;20987;-86
2023/06/20 06:08:18;;;;;;;5.50;5.10;;;24.60;99.90;;;;;;5000872;28;20454;-85
2023/06/20 06:10:43;;;;;;;7.20;6.50;;;24.70;99.90;;;;;;4982642;28;20216;-86
2023/06/20 06:13:10;;;;;;;7.53;7.03;;;24.80;99.90;;;;;;5000290;28;20501;-86
2023/06/20 06:15:35;;;;;;;6.27;6.00;;;24.90;99.90;;;;;;4985650;28;20569;-85
2023/06/20 06:18:03;;;;;;;6.57;6.27;;;25.10;99.90;;;;;;4998939;28;20497;-86
2023/06/20 06:20:29;;;;;;;6.30;6.10;;;24.80;99.90;;;;;;5005502;28;20678;-85
2023/06/20 06:22:55;;;;;;;7.03;6.60;;;24.90;99.90;;;;;;4995474;28;20439;-84
2023/06/20 06:25:21;;;;;;;7.03;6.63;;;25.20;99.90;;;;;;4982078;28;20932;-85
2023/06/20 06:27:46;;;;;;;6.33;5.93;;;25.60;99.90;;;;;;4997487;28;20522;-85
2023/06/20 06:30:14;;;;;;;7.10;6.63;;;26.00;99.90;;;;;;5003897;28;20185;-85
2023/06/20 06:32:40;;;;;;;7.30;5.90;;;26.50;99.90;;;;;;4997226;28;20658;-84
2023/06/20 06:35:09;;;;;;;6.90;6.40;;;26.70;99.90;;;;;;4991984;28;20567;-83
2023/06/20 06:37:35;;;;;;;6.10;5.77;;;26.80;99.90;;;;;;4999937;28;20431;-85
2023/06/20 06:40:01;;;;;;;6.60;6.07;;;27.00;99.90;;;;;;4997975;28;20497;-83
2023/06/20 06:42:27;;;;;;;5.47;5.27;;;26.80;99.90;;;;;;5003455;28;20451;-86
2023/06/20 06:44:53;;;;;;;6.83;6.60;;;26.80;99.80;;;;;;4997812;28;20435;-84
2023/06/20 06:47:18;;;;;;;6.00;5.80;;;26.90;99.80;;;;;;4999710;28;20254;-86
2023/06/20 06:49:44;;;;;;;5.90;5.47;;;26.90;98.30;;;;;;4994195;28;20193;-85
2023/06/20 06:52:10;;;;;;;6.33;6.10;;;26.80;98.10;;;;;;4993835;28;20246;-85
2023/06/20 06:54:35;;;;;;;5.70;5.40;;;26.80;97.80;;;;;;4998122;28;20196;-85
2023/06/20 06:57:01;;;;;;;5.73;5.53;;;26.60;98.40;;;;;;4997520;28;20459;-84
2023/06/20 06:59:26;;;;;;;6.63;6.23;;;26.80;98.20;;;;;;4991851;28;20299;-83
2023/06/20 07:01:52;;;;;;;5.90;5.60;;;27.30;97.70;;;;;;5000492;28;20836;-82
2023/06/20 07:04:18;;;;;;;5.80;5.60;;;27.80;96.00;;;;;;4996267;28;20321;-85
2023/06/20 07:06:43;;;;;;;7.70;7.20;;;28.30;93.90;;;;;;4977123;28;20664;-84
2023/06/20 07:09:09;;;;;;;6.03;5.53;;;28.80;92.30;;;;;;4978799;28;20196;-83
2023/06/20 07:11:35;;;;;;;4.77;4.57;;;29.70;90.60;;;;;;5004019;28;20737;-83
2023/06/20 07:14:01;;;;;;;6.07;5.77;;;30.60;85.20;;;;;;4981660;28;20542;-79
2023/06/20 07:16:28;;;;;;;5.40;5.20;;;31.20;78.70;;;;;;4985853;28;20467;-83
2023/06/20 07:18:54;;;;;;;6.33;5.80;;;31.70;75.50;;;;;;4977601;28;20741;-84
2023/06/20 07:21:19;;;;;;;5.60;5.50;;;32.30;70.40;;;;;;5000965;28;20428;-84
2023/06/20 07:23:45;;;;;;;5.43;5.10;;;32.90;66.60;;;;;;4990851;28;20203;-82
2023/06/20 07:26:10;;;;;;;5.30;5.07;;;33.10;63.70;;;;;;4996687;28;20773;-83
2023/06/20 07:28:36;;;;;;;5.77;5.57;;;33.10;61.40;;;;;;4994923;28;20190;-81
2023/06/20 07:31:02;;;;;;;5.93;5.73;;;33.30;60.70;;;;;;4999296;28;20217;-83
2023/06/20 07:33:28;;;;;;;5.23;5.17;;;33.50;59.40;;;;;;4998341;28;20298;-83
2023/06/20 07:35:53;;;;;;;5.00;4.90;;;34.00;59.00;;;;;;4994443;28;20504;-83
2023/06/20 07:38:19;;;;;;;5.07;4.80;;;34.50;58.20;;;;;;4982291;28;20220;-85
2023/06/20 07:40:45;;;;;;;5.80;5.50;;;34.20;57.80;;;;;;4977353;28;20184;-82
2023/06/20 07:43:10;;;;;;;5.80;5.40;;;33.90;57.80;;;;;;4998178;28;20395;-86
2023/06/20 07:45:36;;;;;;;5.80;5.40;;;34.10;57.30;;;;;;5004120;28;20334;-79
2023/06/20 07:48:03;;;;;;;5.57;5.47;;;34.30;57.40;;;;;;4999004;28;20173;-87
2023/06/20 07:50:30;;;;;;;6.00;5.70;;;34.10;57.00;;;;;;5003170;28;20421;-85
2023/06/20 07:52:58;;;;;;;5.10;5.00;;;33.90;56.70;;;;;;4982170;28;21023;-84
2023/06/20 07:55:24;;;;;;;5.50;5.40;;;34.20;56.90;;;;;;4983433;28;20482;-84
2023/06/20 07:57:49;;;;;;;5.80;5.60;;;34.80;55.90;;;;;;5037939;23;20452;-87
2023/06/20 08:00:15;;;;;;;5.47;5.17;;;35.10;55.60;;;;;;5055046;28;20210;-88
2023/06/20 08:02:43;;;;;;;5.43;5.10;;;34.90;55.00;;;;;;5049533;28;20190;-89
2023/06/20 08:05:08;;;;;;;4.97;4.87;;;34.90;55.00;;;;;;5053345;28;20442;-89
2023/06/20 08:07:37;;;;;;;6.20;5.60;;;35.20;54.60;;;;;;5053281;28;21043;-85
2023/06/20 08:10:04;;;;;;;4.90;4.70;;;35.60;54.40;;;;;;5045569;28;20277;-83
2023/06/20 08:12:30;;;;;;;4.80;4.40;;;36.10;53.70;;;;;;5049766;28;20473;-87
2023/06/20 08:14:55;;;;;;;5.13;4.93;;;36.30;52.80;;;;;;5049943;28;20468;-83
2023/06/20 08:17:21;;;;;;;4.53;4.43;;;36.60;52.10;;;;;;5051848;28;20421;-90
2023/06/20 08:19:46;;;;;;;4.90;4.70;;;35.10;52.90;;;;;;5049299;28;20262;-90
2023/06/20 08:22:13;;;;;;;4.87;4.67;;;35.50;52.90;;;;;;5027647;28;20174;-90
2023/06/20 08:24:38;;;;;;;4.40;4.40;;;35.80;52.30;;;;;;5052182;28;20337;-89
2023/06/20 08:27:04;;;;;;;4.33;4.13;;;35.80;51.70;;;;;;5031085;28;20494;-89
2023/06/20 08:29:30;;;;;;;4.57;4.57;;;35.50;51.60;;;;;;5048911;28;20190;-89
2023/06/20 08:31:56;;;;;;;5.00;4.60;;;35.40;51.70;;;;;;5050000;28;20959;-85
2023/06/20 08:34:21;;;;;;;4.83;4.63;;;35.00;51.90;;;;;;5038076;28;20399;-81
2023/06/20 08:36:47;;;;;;;4.43;4.33;;;34.40;52.90;;;;;;5041047;28;20829;-82
2023/06/20 08:39:12;;;;;;;4.80;4.70;;;34.60;52.80;;;;;;5036823;28;20204;-82
2023/06/20 08:41:38;;;;;;;4.10;4.00;;;35.20;52.30;;;;;;5041214;28;20195;-82
2023/06/20 08:44:04;;;;;;;4.13;4.03;;;35.80;51.20;;;;;;5038116;28;20213;-81
2023/06/20 08:46:31;;;;;;;4.07;3.97;;;36.10;51.00;;;;;;5039506;28;20184;-81
2023/06/20 08:48:57;;;;;;;4.20;4.00;;;36.40;50.80;;;;;;5004310;28;20525;-80
2023/06/20 08:51:26;;;;;;;3.67;3.67;;;37.00;49.90;;;;;;5037657;28;20429;-81
2023/06/20 08:54:01;;;;;;;3.63;3.60;;;37.20;49.00;;;;;;5039154;28;20774;-81
2023/06/20 08:56:27;;;;;;;3.60;3.60;;;37.30;49.00;;;;;;5020232;28;20564;-83
2023/06/20 08:58:52;;;;;;;4.00;3.90;;;37.40;48.80;;;;;;5003248;28;20899;-81
2023/06/20 09:01:18;;;;;;;3.90;3.90;;;37.70;48.90;;;;;;5020944;28;20195;-78
2023/06/20 09:03:44;;;;;;;3.83;3.83;;;37.80;48.50;;;;;;5035381;28;20192;-81
2023/06/20 09:06:09;;;;;;;4.87;4.77;;;38.00;47.80;;;;;;5016931;28;20186;-78
2023/06/20 09:08:37;;;;;;;4.57;4.20;;;38.30;47.60;;;;;;5038360;28;20337;-81
2023/06/20 09:11:12;;;;;;;3.93;3.93;;;38.50;47.60;;;;;;5040001;28;20690;-81
2023/06/20 09:13:38;;;;;;;3.90;3.90;;;38.80;47.30;;;;;;5027231;28;20824;-82
2023/06/20 09:16:05;;;;;;;4.37;4.37;;;38.70;47.10;;;;;;5028673;28;20491;-81
2023/06/20 09:18:35;;;;;;;4.70;4.60;;;38.20;47.60;;;;;;5020399;28;20536;-80
2023/06/20 09:21:02;;;;;;;4.77;4.60;;;37.90;47.60;;;;;;5042777;28;20440;-80
2023/06/20 09:23:29;;;;;;;4.57;4.57;;;37.70;47.80;;;;;;5034642;28;20508;-82
2023/06/20 09:25:56;;;;;;;4.63;4.60;;;37.40;47.90;;;;;;5028368;28;20422;-81
2023/06/20 09:28:22;;;;;;;4.70;4.70;;;36.50;48.50;;;;;;5022068;28;20445;-79
2023/06/20 09:30:48;;;;;;;4.63;4.53;;;37.00;47.80;;;;;;5040936;28;20434;-80
2023/06/20 09:33:15;;;;;;;4.97;4.97;;;37.20;47.70;;;;;;5040228;28;20904;-81
2023/06/20 09:35:41;;;;;;;4.70;4.50;;;35.70;48.90;;;;;;5043380;28;20544;-80
2023/06/20 09:38:07;;;;;;;4.30;4.20;;;36.70;48.80;;;;;;5040188;28;20426;-82
2023/06/20 09:40:45;;;;;;;4.53;4.33;;;37.30;48.00;;;;;;5041961;28;20906;-80
2023/06/20 09:43:10;;;;;;;4.30;4.10;;;38.40;47.60;;;;;;5034690;28;20277;-82
2023/06/20 09:45:36;;;;;;;3.70;3.70;;;38.20;47.20;;;;;;5045174;28;20852;-79
2023/06/20 09:48:03;;;;;;;4.83;4.73;;;38.70;46.70;;;;;;5042307;28;20481;-85
2023/06/20 09:50:31;;;;;;;4.47;4.47;;;38.20;47.00;;;;;;5043986;28;20446;-84
2023/06/20 09:53:09;;;;;;;4.60;4.50;;;37.90;47.10;;;;;;5020959;28;20448;-84
2023/06/20 09:55:36;;;;;;;4.90;4.80;;;37.40;47.10;;;;;;5015213;28;20475;-82
2023/06/20 09:58:04;;;;;;;4.40;4.30;;;37.70;47.40;;;;;;5034130;28;20441;-82
2023/06/20 10:00:31;;;;;;;4.80;4.70;;;37.60;47.50;;;;;;5023751;28;20537;-82
2023/06/20 10:03:01;;;;;;;4.37;4.23;;;37.60;47.50;;;;;;5037448;28;20445;-84
2023/06/20 10:05:28;;;;;;;5.47;5.37;;;38.00;47.20;;;;;;5044579;28;20561;-83
2023/06/20 10:07:57;;;;;;;5.20;5.10;;;37.80;47.00;;;;;;5041446;28;20441;-83
2023/06/20 10:10:23;;;;;;;5.37;5.20;;;37.10;47.30;;;;;;5046779;28;20441;-85
2023/06/20 10:12:49;;;;;;;4.50;4.50;;;37.10;47.70;;;;;;5042725;28;20797;-87
2023/06/20 10:15:16;;;;;;;4.40;4.40;;;37.70;47.30;;;;;;5042694;28;20517;-85
2023/06/20 10:17:46;;;;;;;4.27;4.17;;;38.20;47.20;;;;;;5056084;28;20438;-87
2023/06/20 10:20:33;;;;;;;5.20;5.10;;;38.40;46.70;;;;;;5064903;28;20473;-91
2023/06/20 10:23:05;;;;;;;4.87;4.67;;;38.40;46.60;;;;;;5060768;28;20401;-86
2023/06/20 10:25:32;;;;;;;4.20;4.20;;;38.50;46.70;;;;;;5065779;28;20488;-88
2023/06/20 10:28:06;;;;;;;4.33;4.23;;;38.90;46.10;;;;;;5064396;28;20468;-88
2023/06/20 10:30:55;;;;;;;3.97;3.97;;;38.90;46.20;;;;;;5058783;28;20439;-90
2023/06/20 10:33:30;;;;;;;3.97;3.97;;;39.60;45.40;;;;;;5063755;28;20505;-86
2023/06/20 10:35:57;;;;;;;3.90;3.90;;;39.80;45.10;;;;;;5046971;28;20532;-85
2023/06/20 10:38:24;;;;;;;4.40;4.30;;;39.90;44.70;;;;;;5062275;28;20426;-87
2023/06/20 10:41:05;;;;;;;3.70;3.70;;;40.40;44.90;;;;;;5041293;28;20550;-84
2023/06/20 10:43:46;;;;;;;4.07;3.97;;;40.60;44.20;;;;;;5061063;28;20453;-91
2023/06/20 10:46:13;;;;;;;3.97;3.87;;;40.50;43.70;;;;;;5063321;28;20438;-88
2023/06/20 10:48:39;;;;;;;4.20;4.20;;;40.60;43.70;;;;;;5057224;28;20706;-86
2023/06/20 10:51:05;;;;;;;3.80;3.80;;;40.20;43.70;;;;;;5039541;28;20960;-87
2023/06/20 10:53:31;;;;;;;4.00;4.00;;;39.40;43.50;;;;;;5050379;28;20471;-82
2023/06/20 10:55:57;;;;;;;4.43;4.23;;;39.40;44.10;;;;;;5042919;28;20469;-85
2023/06/20 10:58:23;;;;;;;5.77;5.37;;;39.40;44.10;;;;;;5026156;28;20812;-85
2023/06/20 11:00:53;;;;;;;5.27;5.20;;;39.20;44.60;;;;;;5047374;28;20924;-86
2023/06/20 11:03:21;;;;;;;4.73;4.73;;;38.70;45.00;;;;;;5041734;28;20338;-85
2023/06/20 11:05:56;;;;;;;4.83;4.73;;;38.60;45.00;;;;;;5042351;28;21039;-87
2023/06/20 11:08:25;;;;;;;5.37;5.17;;;39.10;44.90;;;;;;5039423;28;20811;-87
2023/06/20 11:10:51;;;;;;;4.20;4.10;;;39.40;44.80;;;;;;5045601;28;20438;-86
2023/06/20 11:13:17;;;;;;;4.10;4.10;;;39.70;43.80;;;;;;5019863;28;20829;-87
2023/06/20 11:15:43;;;;;;;4.60;4.50;;;40.00;43.20;;;;;;5048244;28;20211;-86
2023/06/20 11:18:09;;;;;;;4.77;4.67;;;39.80;43.40;;;;;;5046378;28;20194;-85
2023/06/20 11:20:39;;;;;;;4.70;4.40;;;40.10;43.30;;;;;;5029263;28;20187;-87
2023/06/20 11:23:12;;;;;;;4.73;4.63;;;40.90;42.90;;;;;;5019252;28;20457;-86
2023/06/20 11:25:39;;;;;;;4.97;4.87;;;41.30;42.50;;;;;;5045761;28;20764;-88
2023/06/20 11:28:12;;;;;;;5.00;4.90;;;41.70;42.50;;;;;;5044915;28;20805;-86
2023/06/20 11:30:45;;;;;;;5.30;5.00;;;41.80;42.20;;;;;;5025504;28;20490;-87
2023/06/20 11:33:12;;;;;;;5.10;5.00;;;42.10;42.10;;;;;;5046460;28;20803;-88
2023/06/20 11:35:54;;;;;;;4.37;4.27;;;42.40;41.90;;;;;;5044531;28;20656;-88
2023/06/20 11:38:25;;;;;;;4.57;4.47;;;41.80;41.80;;;;;;5043695;28;20441;-87
2023/06/20 11:41:07;;;;;;;4.53;4.43;;;42.30;41.90;;;;;;5029502;28;20496;-87
2023/06/20 11:43:43;;;;;;;5.43;5.13;;;41.80;41.60;;;;;;5049421;28;20417;-86
2023/06/20 11:46:11;;;;;;;4.63;4.63;;;41.10;42.60;;;;;;5024767;28;20460;-87
2023/06/20 11:48:48;;;;;;;5.03;4.93;;;40.90;42.40;;;;;;5044874;28;20813;-87
2023/06/20 11:51:14;;;;;;;5.03;5.00;;;41.00;42.30;;;;;;5028120;28;20430;-86
2023/06/20 11:53:39;;;;;;;4.43;4.33;;;40.40;42.50;;;;;;5042609;28;20429;-86
2023/06/20 11:56:07;;;;;;;4.43;4.43;;;40.80;42.10;;;;;;5037218;28;20661;-88
2023/06/20 11:58:36;;;;;;;4.60;4.50;;;40.80;41.80;;;;;;5025344;28;20225;-85
2023/06/20 12:01:18;;;;;;;4.80;4.60;;;40.40;41.90;;;;;;5048688;28;20504;-87
2023/06/20 12:04:10;;;;;;;3.93;3.83;;;40.30;41.90;;;;;;5048000;28;20966;-89
2023/06/20 12:06:39;;;;;;;4.60;4.60;;;40.40;41.10;;;;;;5026374;28;20512;-85
2023/06/20 12:09:09;;;;;;;4.70;4.40;;;40.60;41.90;;;;;;5046164;28;20492;-85
2023/06/20 12:11:45;;;;;;;4.47;4.37;;;41.30;41.90;;;;;;5044515;28;20425;-86
2023/06/20 12:14:11;;;;;;;3.50;3.50;;;41.10;41.50;;;;;;5040119;28;20813;-86
2023/06/20 12:16:37;;;;;;;5.23;4.83;;;41.50;41.10;;;;;;5040577;28;20454;-88
2023/06/20 12:19:03;;;;;;;4.77;4.67;;;41.40;41.40;;;;;;5043261;28;20492;-87
2023/06/20 12:21:28;;;;;;;5.13;4.73;;;41.50;40.90;;;;;;5046228;28;20182;-88
2023/06/20 12:23:55;;;;;;;4.27;4.20;;;41.90;40.90;;;;;;5043188;28;20538;-88
2023/06/20 12:26:22;;;;;;;5.07;4.87;;;42.10;40.70;;;;;;5049267;28;20183;-88
2023/06/20 12:29:39;;;;;;;;;;;;;;;;;;;;;
2023/06/20 12:32:45;;;;;;;;;;;;;;;;;;;;;
2023/06/20 12:35:12;;;;;;;4.50;4.50;;;40.90;41.80;;;;;;4992394;28;20538;-82
2023/06/20 12:37:40;;;;;;;4.50;4.50;;;40.80;41.40;;;;;;5043838;28;20453;-81
2023/06/20 12:40:06;;;;;;;4.57;4.57;;;41.30;41.20;;;;;;5041275;28;20187;-82
2023/06/20 12:42:35;;;;;;;4.73;4.63;;;41.20;40.90;;;;;;5038319;28;20438;-82
2023/06/20 12:45:00;;;;;;;4.87;4.87;;;40.90;41.10;;;;;;5021859;28;20426;-81
2023/06/20 12:47:33;;;;;;;4.40;4.40;;;41.20;41.10;;;;;;5042936;28;20434;-79
2023/06/20 12:50:02;;;;;;;4.30;4.30;;;41.90;40.90;;;;;;5029982;28;20194;-81
2023/06/20 12:52:31;;;;;;;4.33;4.33;;;41.30;40.30;;;;;;5043797;28;21522;-83
2023/06/20 12:54:58;;;;;;;4.83;4.73;;;40.20;41.10;;;;;;5047524;28;20456;-82